Rms Queen Mary 2 — ZCEF6 — position and weather

sailwx.info

Track history (hours):
 
Tides and Currents Weather Stations Pressure Air Temp Water Temp Dewpoint Dewpoint Depression Visibility Wind Speed Wind Dir Waves Ship Positions

Rms Queen Mary 2

Last reported at 2017-Nov-20 00:31 UTC. Time now 2017-Nov-20 18:59 UTC.
Position N 50°06' W 003°16'.

Length 345 m; draft 10.3 m.

Type: Passenger vessel. MMSI: 310627000.

Date/timePositionNaut miles runAvg speedWind from/ knotsBaromVisibWave heightAir tempDewpointWater temp
2017-Nov-20 00:31N 50°06' W 003°16'1122.9
2017-Nov-20 00:01N 50°08' W 002°59'1122.6
2017-Nov-19 23:30N 50°11' W 002°42'1121.9
2017-Nov-19 23:00N 50°16' W 002°26'2720.4
2017-Nov-19 21:41N 50°22' W 001°44'319.7
2017-Nov-19 21:30N 50°23' W 001°39'1834.0
2017-Nov-19 21:00N 50°24' W 001°12'615.1 240 / 101023.710.8 12.0 2.910.9
2017-Nov-19 20:36N 50°30' W 001°15'218.2
2017-Nov-19 20:30N 50°30' W 001°12'817.3
2017-Nov-19 20:00N 50°34' W 001°00'714.3
2017-Nov-19 19:30N 50°41' W 000°57'713.9
2017-Nov-19 19:01N 50°45' W 001°06'817.0
2017-Nov-19 18:31N 50°47' W 001°19'4 8.0
2017-Nov-19 18:01N 50°51' W 001°20'3 0.4
2017-Nov-19 10:39N 50°53' W 001°24'0 0.0
2017-Nov-19 10:18N 50°53' W 001°24'0 0.0
2017-Nov-19 10:00N 50°53' W 001°24'0 0.0
2017-Nov-19 06:41N 50°53' W 001°24'0 0.0
2017-Nov-19 06:30N 50°53' W 001°24'0 0.6
2017-Nov-19 05:59N 50°53' W 001°24'4 7.8
2017-Nov-19 05:30N 50°51' W 001°20'4 8.6
2017-Nov-19 05:00N 50°46' W 001°18'815.4
2017-Nov-19 04:31N 50°45' W 001°06'714.7
2017-Nov-19 04:00N 50°41' W 000°56'510.3
2017-Nov-19 03:31N 50°36' W 000°57'815.5
2017-Nov-19 03:01N 50°31' W 001°06'816.2
2017-Nov-19 02:30N 50°29' W 001°19'916.1
2017-Nov-19 01:58N 50°27' W 001°32'716.2
2017-Nov-19 01:30N 50°25' W 001°43'2515.9
2017-Nov-18 23:57N 50°16' W 002°19'816.6
2017-Nov-18 23:29N 50°13' W 002°30'817.3
2017-Nov-18 23:00N 50°10' W 002°43'918.0
2017-Nov-18 22:30N 50°08' W 002°56'918.2
2017-Nov-18 22:00N 50°05' W 003°10'918.5
2017-Nov-18 21:30N 50°02' W 003°23'1019.3
2017-Nov-18 21:00N 49°57' W 003°36'1018.8
2017-Nov-18 20:28N 49°54' W 003°51'919.4
2017-Nov-18 20:00N 49°53' W 004°05'1019.4
2017-Nov-18 19:30N 49°52' W 004°20'1119.8
2017-Nov-18 18:56N 49°49' W 004°37'920.1
2017-Nov-18 18:28N 49°46' W 004°51'1220.4
2017-Nov-18 17:52N 49°42' W 005°09'1720.4
2017-Nov-18 17:02N 49°40' W 005°35'219.9
2017-Nov-18 16:57N 49°39' W 005°38'920.1
2017-Nov-18 16:30N 49°38' W 005°52'1119.6
2017-Nov-18 15:56N 49°39' W 006°09'918.2
2017-Nov-18 15:25N 49°39' W 006°23'8318.7
2017-Nov-18 11:00N 49°48' W 008°30'37519.7 220 / 101027.810.8 15.010.311.8
2017-Nov-17 16:00N 50°12' W 018°12'15822.5 210 / 241023.610.8 13.512.613.0
2017-Nov-17 09:00N 50°06' W 022°18'17024.3 090 / 221023.010.8 12.010.112.0
2017-Nov-17 02:00N 49°54' W 026°42'31220.8 130 / 241022.610.8 12.0 6.312.3
2017-Nov-16 11:00N 49°06' W 034°36'75321.5 110 / 451017.4 5.4 12.010.112.5
2017-Nov-15 00:00N 45°00' W 052°00'20620.6 130 / 421014.7 5.4 8.0 3.3 8.6
2017-Nov-14 14:00N 43°30' W 056°18'20222.5 130 / 501013.9 5.4 15.013.214.7
2017-Nov-14 05:00N 42°18' W 060°36'2727.3 160 / 701018.1
2017-Nov-14 04:00N 42°12' W 061°12'57321.0 130 / 401015.7 5.4 16.014.315.2
2017-Nov-13 00:43N 40°26' W 073°41'4 9.8
2017-Nov-13 00:21N 40°26' W 073°46'3 9.6
2017-Nov-13 00:00N 40°27' W 073°50'5 9.2
2017-Nov-12 23:30N 40°29' W 073°55'713.8
2017-Nov-12 23:00N 40°34' W 074°02'611.6
2017-Nov-12 22:30N 40°40' W 074°03'2 3.1
2017-Nov-12 21:58N 40°41' W 074°01'0 0.0
2017-Nov-12 21:25N 40°41' W 074°01'0 0.0
2017-Nov-12 20:58N 40°41' W 074°01'0 0.0
2017-Nov-12 20:25N 40°41' W 074°01'0 0.0
2017-Nov-12 19:58N 40°41' W 074°01'0 0.0
2017-Nov-12 19:28N 40°41' W 074°01'0 0.0
2017-Nov-12 18:58N 40°41' W 074°01'0 0.0
2017-Nov-12 18:28N 40°41' W 074°01'0 0.0
2017-Nov-12 17:58N 40°41' W 074°01'0 0.0
2017-Nov-12 17:28N 40°41' W 074°01'0 0.0
2017-Nov-12 16:58N 40°41' W 074°01'0 0.0
2017-Nov-12 16:28N 40°41' W 074°01'0 0.0
2017-Nov-12 15:58N 40°41' W 074°01'0 0.0
2017-Nov-12 15:28N 40°41' W 074°01'0 0.0
2017-Nov-12 14:55N 40°41' W 074°01'0 0.0
2017-Nov-12 14:28N 40°41' W 074°01'0 0.0
2017-Nov-12 13:58N 40°41' W 074°01'0 0.0
2017-Nov-12 13:28N 40°41' W 074°01'0 0.0
2017-Nov-12 12:58N 40°41' W 074°01'0 0.0
2017-Nov-12 12:28N 40°41' W 074°01'0 0.0
2017-Nov-12 11:58N 40°41' W 074°01'0 0.0
2017-Nov-12 11:28N 40°41' W 074°01'0 0.9
2017-Nov-12 11:01N 40°41' W 074°01'1 1.9
2017-Nov-12 10:30N 40°40' W 074°03'4 9.0
2017-Nov-12 10:00N 40°36' W 074°02'714.1
2017-Nov-12 09:30N 40°30' W 073°57'5 9.9
2017-Nov-12 09:00N 40°28' W 073°51'4 8.6
2017-Nov-12 08:30N 40°27' W 073°46'  
Track history (hours):
 
Tides and Currents Weather Stations Pressure Air Temp Water Temp Dewpoint Dewpoint Depression Visibility Wind Speed Wind Dir Waves Ship Positions

Rms Queen Mary 2

Last reported at 2017-Nov-20 00:31 UTC. Time now 2017-Nov-20 18:59 UTC.
Position N 50°06' W 003°16'.

Length 345 m; draft 10.3 m.

Type: Passenger vessel. MMSI: 310627000.

Date/timePositionNaut miles runAvg speedWind from/ knotsBaromVisibWave heightAir tempDewpointWater temp
2017-Nov-20 00:31N 50°06' W 003°16'1122.9
2017-Nov-20 00:01N 50°08' W 002°59'1122.6
2017-Nov-19 23:30N 50°11' W 002°42'1121.9
2017-Nov-19 23:00N 50°16' W 002°26'2720.4
2017-Nov-19 21:41N 50°22' W 001°44'319.7
2017-Nov-19 21:30N 50°23' W 001°39'1834.0
2017-Nov-19 21:00N 50°24' W 001°12'615.1 240 / 101023.710.8 12.0 2.910.9
2017-Nov-19 20:36N 50°30' W 001°15'218.2
2017-Nov-19 20:30N 50°30' W 001°12'817.3
2017-Nov-19 20:00N 50°34' W 001°00'714.3
2017-Nov-19 19:30N 50°41' W 000°57'713.9
2017-Nov-19 19:01N 50°45' W 001°06'817.0
2017-Nov-19 18:31N 50°47' W 001°19'4 8.0
2017-Nov-19 18:01N 50°51' W 001°20'3 0.4
2017-Nov-19 10:39N 50°53' W 001°24'0 0.0
2017-Nov-19 10:18N 50°53' W 001°24'0 0.0
2017-Nov-19 10:00N 50°53' W 001°24'0 0.0
2017-Nov-19 06:41N 50°53' W 001°24'0 0.0
2017-Nov-19 06:30N 50°53' W 001°24'0 0.6
2017-Nov-19 05:59N 50°53' W 001°24'4 7.8
2017-Nov-19 05:30N 50°51' W 001°20'4 8.6
2017-Nov-19 05:00N 50°46' W 001°18'815.4
2017-Nov-19 04:31N 50°45' W 001°06'714.7
2017-Nov-19 04:00N 50°41' W 000°56'510.3
2017-Nov-19 03:31N 50°36' W 000°57'815.5
2017-Nov-19 03:01N 50°31' W 001°06'816.2
2017-Nov-19 02:30N 50°29' W 001°19'916.1
2017-Nov-19 01:58N 50°27' W 001°32'716.2
2017-Nov-19 01:30N 50°25' W 001°43'2515.9
2017-Nov-18 23:57N 50°16' W 002°19'816.6
2017-Nov-18 23:29N 50°13' W 002°30'817.3
2017-Nov-18 23:00N 50°10' W 002°43'918.0
2017-Nov-18 22:30N 50°08' W 002°56'918.2
2017-Nov-18 22:00N 50°05' W 003°10'918.5
2017-Nov-18 21:30N 50°02' W 003°23'1019.3
2017-Nov-18 21:00N 49°57' W 003°36'1018.8
2017-Nov-18 20:28N 49°54' W 003°51'919.4
2017-Nov-18 20:00N 49°53' W 004°05'1019.4
2017-Nov-18 19:30N 49°52' W 004°20'1119.8
2017-Nov-18 18:56N 49°49' W 004°37'920.1
2017-Nov-18 18:28N 49°46' W 004°51'1220.4
2017-Nov-18 17:52N 49°42' W 005°09'1720.4
2017-Nov-18 17:02N 49°40' W 005°35'219.9
2017-Nov-18 16:57N 49°39' W 005°38'920.1
2017-Nov-18 16:30N 49°38' W 005°52'1119.6
2017-Nov-18 15:56N 49°39' W 006°09'918.2
2017-Nov-18 15:25N 49°39' W 006°23'8318.7
2017-Nov-18 11:00N 49°48' W 008°30'37519.7 220 / 101027.810.8 15.010.311.8
2017-Nov-17 16:00N 50°12' W 018°12'15822.5 210 / 241023.610.8 13.512.613.0
2017-Nov-17 09:00N 50°06' W 022°18'17024.3 090 / 221023.010.8 12.010.112.0
2017-Nov-17 02:00N 49°54' W 026°42'31220.8 130 / 241022.610.8 12.0 6.312.3
2017-Nov-16 11:00N 49°06' W 034°36'75321.5 110 / 451017.4 5.4 12.010.112.5
2017-Nov-15 00:00N 45°00' W 052°00'20620.6 130 / 421014.7 5.4 8.0 3.3 8.6
2017-Nov-14 14:00N 43°30' W 056°18'20222.5 130 / 501013.9 5.4 15.013.214.7
2017-Nov-14 05:00N 42°18' W 060°36'2727.3 160 / 701018.1
2017-Nov-14 04:00N 42°12' W 061°12'57321.0 130 / 401015.7 5.4 16.014.315.2
2017-Nov-13 00:43N 40°26' W 073°41'4 9.8
2017-Nov-13 00:21N 40°26' W 073°46'3 9.6
2017-Nov-13 00:00N 40°27' W 073°50'5 9.2
2017-Nov-12 23:30N 40°29' W 073°55'713.8
2017-Nov-12 23:00N 40°34' W 074°02'611.6
2017-Nov-12 22:30N 40°40' W 074°03'2 3.1
2017-Nov-12 21:58N 40°41' W 074°01'0 0.0
2017-Nov-12 21:25N 40°41' W 074°01'0 0.0
2017-Nov-12 20:58N 40°41' W 074°01'0 0.0
2017-Nov-12 20:25N 40°41' W 074°01'0 0.0
2017-Nov-12 19:58N 40°41' W 074°01'0 0.0
2017-Nov-12 19:28N 40°41' W 074°01'0 0.0
2017-Nov-12 18:58N 40°41' W 074°01'0 0.0
2017-Nov-12 18:28N 40°41' W 074°01'0 0.0
2017-Nov-12 17:58N 40°41' W 074°01'0 0.0
2017-Nov-12 17:28N 40°41' W 074°01'0 0.0
2017-Nov-12 16:58N 40°41' W 074°01'0 0.0
2017-Nov-12 16:28N 40°41' W 074°01'0 0.0
2017-Nov-12 15:58N 40°41' W 074°01'0 0.0
2017-Nov-12 15:28N 40°41' W 074°01'0 0.0
2017-Nov-12 14:55N 40°41' W 074°01'0 0.0
2017-Nov-12 14:28N 40°41' W 074°01'0 0.0
2017-Nov-12 13:58N 40°41' W 074°01'0 0.0
2017-Nov-12 13:28N 40°41' W 074°01'0 0.0
2017-Nov-12 12:58N 40°41' W 074°01'0 0.0
2017-Nov-12 12:28N 40°41' W 074°01'0 0.0
2017-Nov-12 11:58N 40°41' W 074°01'0 0.0
2017-Nov-12 11:28N 40°41' W 074°01'0 0.9
2017-Nov-12 11:01N 40°41' W 074°01'1 1.9
2017-Nov-12 10:30N 40°40' W 074°03'4 9.0
2017-Nov-12 10:00N 40°36' W 074°02'714.1
2017-Nov-12 09:30N 40°30' W 073°57'5 9.9
2017-Nov-12 09:00N 40°28' W 073°51'4 8.6
2017-Nov-12 08:30N 40°27' W 073°46'  

Dump ship's entire track history